sensor_id;sensor_type;location;lat;lon;timestamp;temperature;humidity
10431;DHT22;5262;59.958;17.726;2024-01-15T00:02:02;-4.10;99.90
10431;DHT22;5262;59.958;17.726;2024-01-15T00:04:28;-4.10;99.90
10431;DHT22;5262;59.958;17.726;2024-01-15T00:06:54;-4.10;99.90
10431;DHT22;5262;59.958;17.726;2024-01-15T00:09:19;-4.20;99.90
10431;DHT22;5262;59.958;17.726;2024-01-15T00:11:45;-4.20;99.90
10431;DHT22;5262;59.958;17.726;2024-01-15T00:14:11;-4.20;99.90
10431;DHT22;5262;59.958;17.726;2024-01-15T00:16:40;-4.20;99.90
10431;DHT22;5262;59.958;17.726;2024-01-15T00:19:06;-4.20;99.90
10431;DHT22;5262;59.958;17.726;2024-01-15T00:21:31;-4.20;99.90
10431;DHT22;5262;59.958;17.726;2024-01-15T00:23:57;-4.10;99.90
10431;DHT22;5262;59.958;17.726;2024-01-15T00:26:23;-4.10;99.90
10431;DHT22;5262;59.958;17.726;2024-01-15T00:28:48;-4.10;99.90
10431;DHT22;5262;59.958;17.726;2024-01-15T00:31:16;-4.10;99.90
10431;DHT22;5262;59.958;17.726;2024-01-15T00:33:42;-4.10;99.90
10431;DHT22;5262;59.958;17.726;2024-01-15T00:36:08;-4.20;99.90
10431;DHT22;5262;59.958;17.726;2024-01-15T00:38:34;-4.20;99.90
10431;DHT22;5262;59.958;17.726;2024-01-15T00:40:59;-4.20;99.90
10431;DHT22;5262;59.958;17.726;2024-01-15T00:43:25;-4.10;99.90
10431;DHT22;5262;59.958;17.726;2024-01-15T00:45:51;-4.10;99.90
10431;DHT22;5262;59.958;17.726;2024-01-15T00:48:16;-4.20;99.90
10431;DHT22;5262;59.958;17.726;2024-01-15T00:50:42;-4.30;99.90
10431;DHT22;5262;59.958;17.726;2024-01-15T00:53:07;-4.30;99.90
10431;DHT22;5262;59.958;17.726;2024-01-15T00:55:33;-4.30;99.90
10431;DHT22;5262;59.958;17.726;2024-01-15T00:57:59;-4.40;99.90
10431;DHT22;5262;59.958;17.726;2024-01-15T01:00:24;-4.30;99.90
10431;DHT22;5262;59.958;17.726;2024-01-15T01:02:50;-4.30;99.90
10431;DHT22;5262;59.958;17.726;2024-01-15T01:05:15;-4.30;99.90
10431;DHT22;5262;59.958;17.726;2024-01-15T01:07:41;-4.40;99.90
10431;DHT22;5262;59.958;17.726;2024-01-15T01:10:07;-4.40;99.90
10431;DHT22;5262;59.958;17.726;2024-01-15T01:12:32;-4.40;99.90
10431;DHT22;5262;59.958;17.726;2024-01-15T01:14:58;-4.40;99.90
10431;DHT22;5262;59.958;17.726;2024-01-15T01:17:24;-4.50;99.90
10431;DHT22;5262;59.958;17.726;2024-01-15T01:19:50;-4.50;99.90
10431;DHT22;5262;59.958;17.726;2024-01-15T01:22:16;-4.40;99.90
10431;DHT22;5262;59.958;17.726;2024-01-15T01:24:41;-4.40;99.90
10431;DHT22;5262;59.958;17.726;2024-01-15T01:27:07;-4.40;99.90
10431;DHT22;5262;59.958;17.726;2024-01-15T01:29:32;-4.50;99.90
10431;DHT22;5262;59.958;17.726;2024-01-15T01:31:58;-4.60;99.90
10431;DHT22;5262;59.958;17.726;2024-01-15T01:34:24;-4.60;99.90
10431;DHT22;5262;59.958;17.726;2024-01-15T01:36:50;-4.60;99.90
10431;DHT22;5262;59.958;17.726;2024-01-15T01:39:15;-4.60;99.90
10431;DHT22;5262;59.958;17.726;2024-01-15T01:41:41;-4.60;99.90
10431;DHT22;5262;59.958;17.726;2024-01-15T01:44:06;-4.60;99.90
10431;DHT22;5262;59.958;17.726;2024-01-15T01:46:33;-4.60;99.90
10431;DHT22;5262;59.958;17.726;2024-01-15T01:48:59;-4.60;99.90
10431;DHT22;5262;59.958;17.726;2024-01-15T01:51:30;-4.60;99.90
10431;DHT22;5262;59.958;17.726;2024-01-15T01:53:56;-4.70;99.90
10431;DHT22;5262;59.958;17.726;2024-01-15T01:56:23;-4.70;99.90
10431;DHT22;5262;59.958;17.726;2024-01-15T01:58:49;-4.60;99.90
10431;DHT22;5262;59.958;17.726;2024-01-15T02:01:15;-4.60;99.90
10431;DHT22;5262;59.958;17.726;2024-01-15T02:03:41;-4.60;99.90
10431;DHT22;5262;59.958;17.726;2024-01-15T02:06:07;-4.60;99.90
10431;DHT22;5262;59.958;17.726;2024-01-15T02:08:34;-4.80;99.90
10431;DHT22;5262;59.958;17.726;2024-01-15T02:11:00;-4.80;99.90
10431;DHT22;5262;59.958;17.726;2024-01-15T02:13:26;-4.80;99.90
10431;DHT22;5262;59.958;17.726;2024-01-15T02:15:51;-4.80;99.90
10431;DHT22;5262;59.958;17.726;2024-01-15T02:18:17;-4.80;99.90
10431;DHT22;5262;59.958;17.726;2024-01-15T02:20:43;-4.90;99.90
10431;DHT22;5262;59.958;17.726;2024-01-15T02:23:14;-4.80;99.90
10431;DHT22;5262;59.958;17.726;2024-01-15T02:25:42;-4.90;99.90
10431;DHT22;5262;59.958;17.726;2024-01-15T02:28:11;-5.00;99.90
10431;DHT22;5262;59.958;17.726;2024-01-15T02:30:41;-4.90;99.90
10431;DHT22;5262;59.958;17.726;2024-01-15T02:33:07;-5.00;99.90
10431;DHT22;5262;59.958;17.726;2024-01-15T02:35:36;-4.90;99.90
10431;DHT22;5262;59.958;17.726;2024-01-15T02:38:03;-4.90;99.90
10431;DHT22;5262;59.958;17.726;2024-01-15T02:40:29;-5.00;99.90
10431;DHT22;5262;59.958;17.726;2024-01-15T02:42:54;-5.00;99.90
10431;DHT22;5262;59.958;17.726;2024-01-15T02:45:22;-5.00;99.90
10431;DHT22;5262;59.958;17.726;2024-01-15T02:47:47;-5.00;99.90
10431;DHT22;5262;59.958;17.726;2024-01-15T02:50:14;-5.00;99.90
10431;DHT22;5262;59.958;17.726;2024-01-15T02:52:39;-5.00;99.90
10431;DHT22;5262;59.958;17.726;2024-01-15T02:55:05;-5.00;99.90
10431;DHT22;5262;59.958;17.726;2024-01-15T02:57:31;-5.00;99.90
10431;DHT22;5262;59.958;17.726;2024-01-15T02:59:57;-5.00;99.90
10431;DHT22;5262;59.958;17.726;2024-01-15T03:02:22;-5.00;99.90
10431;DHT22;5262;59.958;17.726;2024-01-15T03:04:48;-5.00;99.90
10431;DHT22;5262;59.958;17.726;2024-01-15T03:07:14;-5.00;99.90
10431;DHT22;5262;59.958;17.726;2024-01-15T03:09:39;-5.00;99.90
10431;DHT22;5262;59.958;17.726;2024-01-15T03:12:05;-5.10;99.90
10431;DHT22;5262;59.958;17.726;2024-01-15T03:14:31;-5.10;99.90
10431;DHT22;5262;59.958;17.726;2024-01-15T03:16:57;-5.10;99.90
10431;DHT22;5262;59.958;17.726;2024-01-15T03:19:22;-5.20;99.90
10431;DHT22;5262;59.958;17.726;2024-01-15T03:21:48;-5.10;99.90
10431;DHT22;5262;59.958;17.726;2024-01-15T03:24:14;-5.10;99.90
10431;DHT22;5262;59.958;17.726;2024-01-15T03:26:40;-5.00;99.90
10431;DHT22;5262;59.958;17.726;2024-01-15T03:29:06;-5.10;99.90
10431;DHT22;5262;59.958;17.726;2024-01-15T03:31:32;-5.20;99.90
10431;DHT22;5262;59.958;17.726;2024-01-15T03:33:58;-5.10;99.90
10431;DHT22;5262;59.958;17.726;2024-01-15T03:36:23;-5.10;99.90
10431;DHT22;5262;59.958;17.726;2024-01-15T03:38:49;-5.10;99.90
10431;DHT22;5262;59.958;17.726;2024-01-15T03:41:15;-5.20;99.90
10431;DHT22;5262;59.958;17.726;2024-01-15T03:43:40;-5.20;99.90
10431;DHT22;5262;59.958;17.726;2024-01-15T03:46:07;-5.30;99.90
10431;DHT22;5262;59.958;17.726;2024-01-15T03:48:32;-5.20;99.90
10431;DHT22;5262;59.958;17.726;2024-01-15T03:50:58;-5.20;99.90
10431;DHT22;5262;59.958;17.726;2024-01-15T03:53:23;-5.10;99.90
10431;DHT22;5262;59.958;17.726;2024-01-15T03:55:49;-5.10;99.90
10431;DHT22;5262;59.958;17.726;2024-01-15T03:58:15;-5.20;99.90
10431;DHT22;5262;59.958;17.726;2024-01-15T04:00:42;-5.20;99.90
10431;DHT22;5262;59.958;17.726;2024-01-15T04:03:08;-5.30;99.90
10431;DHT22;5262;59.958;17.726;2024-01-15T04:05:33;-5.20;99.90
10431;DHT22;5262;59.958;17.726;2024-01-15T04:07:59;-5.20;99.90
10431;DHT22;5262;59.958;17.726;2024-01-15T04:10:25;-5.20;99.90
10431;DHT22;5262;59.958;17.726;2024-01-15T04:12:50;-5.30;99.90
10431;DHT22;5262;59.958;17.726;2024-01-15T04:15:16;-5.20;99.90
10431;DHT22;5262;59.958;17.726;2024-01-15T04:17:42;-5.30;99.90
10431;DHT22;5262;59.958;17.726;2024-01-15T04:20:08;-5.20;99.90
10431;DHT22;5262;59.958;17.726;2024-01-15T04:22:35;-5.30;99.90
10431;DHT22;5262;59.958;17.726;2024-01-15T04:25:02;-5.40;99.90
10431;DHT22;5262;59.958;17.726;2024-01-15T04:27:28;-5.40;99.90
10431;DHT22;5262;59.958;17.726;2024-01-15T04:29:54;-5.40;99.90
10431;DHT22;5262;59.958;17.726;2024-01-15T04:32:19;-5.50;99.90
10431;DHT22;5262;59.958;17.726;2024-01-15T04:34:45;-5.40;99.90
10431;DHT22;5262;59.958;17.726;2024-01-15T04:37:11;-5.40;99.90
10431;DHT22;5262;59.958;17.726;2024-01-15T04:39:36;-5.40;99.90
10431;DHT22;5262;59.958;17.726;2024-01-15T04:42:02;-5.40;99.90
10431;DHT22;5262;59.958;17.726;2024-01-15T04:44:28;-5.40;99.90
10431;DHT22;5262;59.958;17.726;2024-01-15T04:46:54;-5.40;99.90
10431;DHT22;5262;59.958;17.726;2024-01-15T04:49:20;-5.40;99.90
10431;DHT22;5262;59.958;17.726;2024-01-15T04:51:45;-5.30;99.90
10431;DHT22;5262;59.958;17.726;2024-01-15T04:54:11;-5.40;99.90
10431;DHT22;5262;59.958;17.726;2024-01-15T04:56:37;-5.40;99.90
10431;DHT22;5262;59.958;17.726;2024-01-15T04:59:02;-5.30;99.90
10431;DHT22;5262;59.958;17.726;2024-01-15T05:01:32;-5.50;99.90
10431;DHT22;5262;59.958;17.726;2024-01-15T05:03:58;-5.50;99.90
10431;DHT22;5262;59.958;17.726;2024-01-15T05:06:24;-5.50;99.90
10431;DHT22;5262;59.958;17.726;2024-01-15T05:08:50;-5.50;99.90
10431;DHT22;5262;59.958;17.726;2024-01-15T05:11:16;-5.60;99.90
10431;DHT22;5262;59.958;17.726;2024-01-15T05:13:41;-5.60;99.90
10431;DHT22;5262;59.958;17.726;2024-01-15T05:16:07;-5.60;99.90
10431;DHT22;5262;59.958;17.726;2024-01-15T05:18:33;-5.60;99.90
10431;DHT22;5262;59.958;17.726;2024-01-15T05:20:59;-5.60;99.90
10431;DHT22;5262;59.958;17.726;2024-01-15T05:23:24;-5.50;99.90
10431;DHT22;5262;59.958;17.726;2024-01-15T05:25:50;-5.50;99.90
10431;DHT22;5262;59.958;17.726;2024-01-15T05:28:16;-5.50;99.90
10431;DHT22;5262;59.958;17.726;2024-01-15T05:30:41;-5.50;99.90
10431;DHT22;5262;59.958;17.726;2024-01-15T05:33:07;-5.50;99.90
10431;DHT22;5262;59.958;17.726;2024-01-15T05:35:34;-5.50;99.90
10431;DHT22;5262;59.958;17.726;2024-01-15T05:37:59;-5.50;99.90
10431;DHT22;5262;59.958;17.726;2024-01-15T05:40:25;-5.50;99.90
10431;DHT22;5262;59.958;17.726;2024-01-15T05:42:51;-5.50;99.90
10431;DHT22;5262;59.958;17.726;2024-01-15T05:45:16;-5.50;99.90
10431;DHT22;5262;59.958;17.726;2024-01-15T05:47:42;-5.50;99.90
10431;DHT22;5262;59.958;17.726;2024-01-15T05:50:10;-5.60;99.90
10431;DHT22;5262;59.958;17.726;2024-01-15T05:52:36;-5.60;99.90
10431;DHT22;5262;59.958;17.726;2024-01-15T05:55:01;-5.60;99.90
10431;DHT22;5262;59.958;17.726;2024-01-15T05:57:27;-5.60;99.90
10431;DHT22;5262;59.958;17.726;2024-01-15T05:59:53;-5.50;99.90
10431;DHT22;5262;59.958;17.726;2024-01-15T06:02:19;-5.50;99.90
10431;DHT22;5262;59.958;17.726;2024-01-15T06:04:45;-5.50;99.90
10431;DHT22;5262;59.958;17.726;2024-01-15T06:07:10;-5.60;99.90
10431;DHT22;5262;59.958;17.726;2024-01-15T06:09:36;-5.60;99.90
10431;DHT22;5262;59.958;17.726;2024-01-15T06:12:02;-5.50;99.90
10431;DHT22;5262;59.958;17.726;2024-01-15T06:14:28;-5.60;99.90
10431;DHT22;5262;59.958;17.726;2024-01-15T06:16:53;-5.50;99.90
10431;DHT22;5262;59.958;17.726;2024-01-15T06:19:19;-5.60;99.90
10431;DHT22;5262;59.958;17.726;2024-01-15T06:21:44;-5.60;99.90
10431;DHT22;5262;59.958;17.726;2024-01-15T06:24:10;-5.70;99.90
10431;DHT22;5262;59.958;17.726;2024-01-15T06:26:36;-5.60;99.90
10431;DHT22;5262;59.958;17.726;2024-01-15T06:29:01;-5.70;99.90
10431;DHT22;5262;59.958;17.726;2024-01-15T06:31:28;-5.70;99.90
10431;DHT22;5262;59.958;17.726;2024-01-15T06:33:55;-5.70;99.90
10431;DHT22;5262;59.958;17.726;2024-01-15T06:36:21;-5.70;99.90
10431;DHT22;5262;59.958;17.726;2024-01-15T06:38:47;-5.60;99.90
10431;DHT22;5262;59.958;17.726;2024-01-15T06:41:12;-5.60;99.90
10431;DHT22;5262;59.958;17.726;2024-01-15T06:43:38;-5.60;99.90
10431;DHT22;5262;59.958;17.726;2024-01-15T06:46:04;-5.60;99.90
10431;DHT22;5262;59.958;17.726;2024-01-15T06:48:29;-5.60;99.90
10431;DHT22;5262;59.958;17.726;2024-01-15T06:50:56;-5.70;99.90
10431;DHT22;5262;59.958;17.726;2024-01-15T06:53:21;-5.70;99.90
10431;DHT22;5262;59.958;17.726;2024-01-15T06:55:47;-5.80;99.90
10431;DHT22;5262;59.958;17.726;2024-01-15T06:58:14;-5.80;99.90
10431;DHT22;5262;59.958;17.726;2024-01-15T07:00:40;-5.70;99.90
10431;DHT22;5262;59.958;17.726;2024-01-15T07:03:06;-5.70;99.90
10431;DHT22;5262;59.958;17.726;2024-01-15T07:05:32;-5.70;99.90
10431;DHT22;5262;59.958;17.726;2024-01-15T07:07:58;-5.70;99.90
10431;DHT22;5262;59.958;17.726;2024-01-15T07:10:24;-5.70;99.90
10431;DHT22;5262;59.958;17.726;2024-01-15T07:12:49;-5.70;99.90
10431;DHT22;5262;59.958;17.726;2024-01-15T07:15:15;-5.70;99.90
10431;DHT22;5262;59.958;17.726;2024-01-15T07:17:41;-5.70;99.90
10431;DHT22;5262;59.958;17.726;2024-01-15T07:20:08;-5.60;99.90
10431;DHT22;5262;59.958;17.726;2024-01-15T07:22:37;-5.70;99.90
10431;DHT22;5262;59.958;17.726;2024-01-15T07:25:04;-5.70;99.90
10431;DHT22;5262;59.958;17.726;2024-01-15T07:27:31;-5.70;99.90
10431;DHT22;5262;59.958;17.726;2024-01-15T07:29:57;-5.70;99.90
10431;DHT22;5262;59.958;17.726;2024-01-15T07:32:23;-5.70;99.90
10431;DHT22;5262;59.958;17.726;2024-01-15T07:34:49;-5.70;99.90
10431;DHT22;5262;59.958;17.726;2024-01-15T07:37:15;-5.70;99.90
10431;DHT22;5262;59.958;17.726;2024-01-15T07:39:40;-5.80;99.90
10431;DHT22;5262;59.958;17.726;2024-01-15T07:42:06;-5.70;99.90
10431;DHT22;5262;59.958;17.726;2024-01-15T07:44:32;-5.70;99.90
10431;DHT22;5262;59.958;17.726;2024-01-15T07:46:58;-5.70;99.90
10431;DHT22;5262;59.958;17.726;2024-01-15T07:49:24;-5.80;99.90
10431;DHT22;5262;59.958;17.726;2024-01-15T07:51:50;-5.80;99.90
10431;DHT22;5262;59.958;17.726;2024-01-15T07:54:15;-5.80;99.90
10431;DHT22;5262;59.958;17.726;2024-01-15T07:57:02;-5.70;99.90
10431;DHT22;5262;59.958;17.726;2024-01-15T07:59:30;-5.60;99.90
10431;DHT22;5262;59.958;17.726;2024-01-15T08:01:58;-5.60;99.90
10431;DHT22;5262;59.958;17.726;2024-01-15T08:04:23;-5.50;99.90
10431;DHT22;5262;59.958;17.726;2024-01-15T08:06:49;-5.50;99.90
10431;DHT22;5262;59.958;17.726;2024-01-15T08:09:15;-5.60;99.90
10431;DHT22;5262;59.958;17.726;2024-01-15T08:11:40;-5.60;99.90
10431;DHT22;5262;59.958;17.726;2024-01-15T08:14:10;-5.70;99.90
10431;DHT22;5262;59.958;17.726;2024-01-15T08:16:36;-5.60;99.90
10431;DHT22;5262;59.958;17.726;2024-01-15T08:19:02;-5.70;99.90
10431;DHT22;5262;59.958;17.726;2024-01-15T08:21:28;-5.60;99.90
10431;DHT22;5262;59.958;17.726;2024-01-15T08:24:01;-5.70;99.90
10431;DHT22;5262;59.958;17.726;2024-01-15T08:26:28;-5.70;99.90
10431;DHT22;5262;59.958;17.726;2024-01-15T08:28:53;-5.70;99.90
10431;DHT22;5262;59.958;17.726;2024-01-15T08:31:19;-5.70;99.90
10431;DHT22;5262;59.958;17.726;2024-01-15T08:33:44;-5.70;99.90
10431;DHT22;5262;59.958;17.726;2024-01-15T08:36:10;-5.70;99.90
10431;DHT22;5262;59.958;17.726;2024-01-15T08:38:36;-5.70;99.90
10431;DHT22;5262;59.958;17.726;2024-01-15T08:41:01;-5.60;99.90
10431;DHT22;5262;59.958;17.726;2024-01-15T08:43:27;-5.60;99.90
10431;DHT22;5262;59.958;17.726;2024-01-15T08:45:53;-5.60;99.90
10431;DHT22;5262;59.958;17.726;2024-01-15T08:48:19;-5.60;99.90
10431;DHT22;5262;59.958;17.726;2024-01-15T08:50:45;-5.60;99.90
10431;DHT22;5262;59.958;17.726;2024-01-15T08:53:14;-5.70;99.90
10431;DHT22;5262;59.958;17.726;2024-01-15T08:55:40;-5.70;99.90
10431;DHT22;5262;59.958;17.726;2024-01-15T08:58:08;-5.60;99.90
10431;DHT22;5262;59.958;17.726;2024-01-15T09:00:34;-5.70;99.90
10431;DHT22;5262;59.958;17.726;2024-01-15T09:02:59;-5.70;99.90
10431;DHT22;5262;59.958;17.726;2024-01-15T09:05:25;-5.70;99.90
10431;DHT22;5262;59.958;17.726;2024-01-15T09:07:51;-5.80;99.90
10431;DHT22;5262;59.958;17.726;2024-01-15T09:10:18;-5.70;99.90
10431;DHT22;5262;59.958;17.726;2024-01-15T09:12:43;-5.60;99.90
10431;DHT22;5262;59.958;17.726;2024-01-15T09:15:09;-5.60;99.90
10431;DHT22;5262;59.958;17.726;2024-01-15T09:17:35;-5.50;99.90
10431;DHT22;5262;59.958;17.726;2024-01-15T09:20:00;-5.50;99.90
10431;DHT22;5262;59.958;17.726;2024-01-15T09:22:26;-5.50;99.90
10431;DHT22;5262;59.958;17.726;2024-01-15T09:24:52;-5.50;99.90
10431;DHT22;5262;59.958;17.726;2024-01-15T09:27:18;-5.50;99.90
10431;DHT22;5262;59.958;17.726;2024-01-15T09:29:44;-5.50;99.90
10431;DHT22;5262;59.958;17.726;2024-01-15T09:32:12;-5.50;99.90
10431;DHT22;5262;59.958;17.726;2024-01-15T09:34:38;-5.40;99.90
10431;DHT22;5262;59.958;17.726;2024-01-15T09:37:04;-5.40;99.90
10431;DHT22;5262;59.958;17.726;2024-01-15T09:39:30;-5.40;99.90
10431;DHT22;5262;59.958;17.726;2024-01-15T09:41:57;-5.30;99.90
10431;DHT22;5262;59.958;17.726;2024-01-15T09:44:23;-5.40;99.90
10431;DHT22;5262;59.958;17.726;2024-01-15T09:46:49;-5.30;99.90
10431;DHT22;5262;59.958;17.726;2024-01-15T09:49:18;-5.30;99.90
10431;DHT22;5262;59.958;17.726;2024-01-15T09:51:44;-5.30;99.90
10431;DHT22;5262;59.958;17.726;2024-01-15T09:54:10;-5.30;99.90
10431;DHT22;5262;59.958;17.726;2024-01-15T09:56:39;-5.30;99.90
10431;DHT22;5262;59.958;17.726;2024-01-15T09:59:05;-5.20;99.90
10431;DHT22;5262;59.958;17.726;2024-01-15T10:01:32;-5.20;99.90
10431;DHT22;5262;59.958;17.726;2024-01-15T10:03:58;-5.10;99.90
10431;DHT22;5262;59.958;17.726;2024-01-15T10:06:27;-5.20;99.90
10431;DHT22;5262;59.958;17.726;2024-01-15T10:08:57;-5.20;99.90
10431;DHT22;5262;59.958;17.726;2024-01-15T10:11:26;-5.20;99.90
10431;DHT22;5262;59.958;17.726;2024-01-15T10:13:52;-5.20;99.90
10431;DHT22;5262;59.958;17.726;2024-01-15T10:16:22;-5.20;99.90
10431;DHT22;5262;59.958;17.726;2024-01-15T10:18:48;-5.20;99.90
10431;DHT22;5262;59.958;17.726;2024-01-15T10:21:14;-5.20;99.90
10431;DHT22;5262;59.958;17.726;2024-01-15T10:23:41;-5.20;99.90
10431;DHT22;5262;59.958;17.726;2024-01-15T10:26:07;-5.10;99.90
10431;DHT22;5262;59.958;17.726;2024-01-15T10:28:33;-5.10;99.90
10431;DHT22;5262;59.958;17.726;2024-01-15T10:30:59;-5.10;99.90
10431;DHT22;5262;59.958;17.726;2024-01-15T10:33:26;-5.10;99.90
10431;DHT22;5262;59.958;17.726;2024-01-15T10:35:56;-5.10;99.90
10431;DHT22;5262;59.958;17.726;2024-01-15T10:38:23;-5.20;99.90
10431;DHT22;5262;59.958;17.726;2024-01-15T10:40:56;-5.00;99.90
10431;DHT22;5262;59.958;17.726;2024-01-15T10:43:22;-5.00;99.90
10431;DHT22;5262;59.958;17.726;2024-01-15T10:45:49;-5.10;99.90
10431;DHT22;5262;59.958;17.726;2024-01-15T10:48:17;-5.10;99.90
10431;DHT22;5262;59.958;17.726;2024-01-15T10:50:46;-5.20;99.90
10431;DHT22;5262;59.958;17.726;2024-01-15T10:53:16;-5.20;99.90
10431;DHT22;5262;59.958;17.726;2024-01-15T10:55:42;-5.10;99.90
10431;DHT22;5262;59.958;17.726;2024-01-15T10:58:08;-5.10;99.90
10431;DHT22;5262;59.958;17.726;2024-01-15T11:00:38;-5.10;99.90
10431;DHT22;5262;59.958;17.726;2024-01-15T11:03:05;-5.10;99.90
10431;DHT22;5262;59.958;17.726;2024-01-15T11:05:38;-5.10;99.90
10431;DHT22;5262;59.958;17.726;2024-01-15T11:08:06;-5.10;99.90
10431;DHT22;5262;59.958;17.726;2024-01-15T11:10:51;-5.10;99.90
10431;DHT22;5262;59.958;17.726;2024-01-15T11:18:39;-5.10;99.90
10431;DHT22;5262;59.958;17.726;2024-01-15T11:23:45;-5.20;99.90
10431;DHT22;5262;59.958;17.726;2024-01-15T11:26:36;-5.20;99.90
10431;DHT22;5262;59.958;17.726;2024-01-15T11:29:07;-5.20;99.90
10431;DHT22;5262;59.958;17.726;2024-01-15T11:34:10;-5.20;99.90
10431;DHT22;5262;59.958;17.726;2024-01-15T11:42:02;-5.20;99.90
10431;DHT22;5262;59.958;17.726;2024-01-15T11:44:31;-5.20;99.90
10431;DHT22;5262;59.958;17.726;2024-01-15T11:47:04;-5.20;99.90
10431;DHT22;5262;59.958;17.726;2024-01-15T11:50:01;-5.10;99.90
10431;DHT22;5262;59.958;17.726;2024-01-15T11:52:37;-5.10;99.90
10431;DHT22;5262;59.958;17.726;2024-01-15T11:55:19;-5.10;99.90
10431;DHT22;5262;59.958;17.726;2024-01-15T11:57:52;-5.10;99.90
10431;DHT22;5262;59.958;17.726;2024-01-15T12:00:20;-5.10;99.90
10431;DHT22;5262;59.958;17.726;2024-01-15T12:02:47;-5.10;99.90
10431;DHT22;5262;59.958;17.726;2024-01-15T12:05:18;-5.10;99.90
10431;DHT22;5262;59.958;17.726;2024-01-15T12:07:45;-5.10;99.90
10431;DHT22;5262;59.958;17.726;2024-01-15T12:10:19;-5.20;99.90
10431;DHT22;5262;59.958;17.726;2024-01-15T12:12:53;-5.20;99.90
10431;DHT22;5262;59.958;17.726;2024-01-15T12:15:21;-5.20;99.90
10431;DHT22;5262;59.958;17.726;2024-01-15T12:17:47;-5.20;99.90
10431;DHT22;5262;59.958;17.726;2024-01-15T12:20:13;-5.10;99.90
10431;DHT22;5262;59.958;17.726;2024-01-15T12:22:39;-5.20;99.90
10431;DHT22;5262;59.958;17.726;2024-01-15T12:25:05;-5.10;99.90
10431;DHT22;5262;59.958;17.726;2024-01-15T12:27:31;-5.10;99.90
10431;DHT22;5262;59.958;17.726;2024-01-15T12:29:58;-5.10;99.90
10431;DHT22;5262;59.958;17.726;2024-01-15T12:32:25;-5.10;99.90
10431;DHT22;5262;59.958;17.726;2024-01-15T12:34:51;-5.10;99.90
10431;DHT22;5262;59.958;17.726;2024-01-15T12:37:20;-5.10;99.90
10431;DHT22;5262;59.958;17.726;2024-01-15T12:39:46;-5.20;99.90
10431;DHT22;5262;59.958;17.726;2024-01-15T12:42:14;-5.30;99.90
10431;DHT22;5262;59.958;17.726;2024-01-15T12:44:40;-5.20;99.90
10431;DHT22;5262;59.958;17.726;2024-01-15T12:47:06;-5.20;99.90
10431;DHT22;5262;59.958;17.726;2024-01-15T12:49:32;-5.20;99.90
10431;DHT22;5262;59.958;17.726;2024-01-15T12:51:58;-5.20;99.90
10431;DHT22;5262;59.958;17.726;2024-01-15T12:54:25;-5.10;99.90
10431;DHT22;5262;59.958;17.726;2024-01-15T12:56:51;-5.20;99.90
10431;DHT22;5262;59.958;17.726;2024-01-15T12:59:17;-5.30;99.90
10431;DHT22;5262;59.958;17.726;2024-01-15T13:01:44;-5.40;99.90
10431;DHT22;5262;59.958;17.726;2024-01-15T13:04:10;-5.40;99.90
10431;DHT22;5262;59.958;17.726;2024-01-15T13:06:36;-5.50;99.90
10431;DHT22;5262;59.958;17.726;2024-01-15T13:09:05;-5.60;99.90
10431;DHT22;5262;59.958;17.726;2024-01-15T13:11:32;-5.70;99.90
10431;DHT22;5262;59.958;17.726;2024-01-15T13:13:58;-5.70;99.90
10431;DHT22;5262;59.958;17.726;2024-01-15T13:16:23;-5.60;99.90
10431;DHT22;5262;59.958;17.726;2024-01-15T13:18:52;-5.60;99.90
10431;DHT22;5262;59.958;17.726;2024-01-15T13:21:18;-5.70;99.90
10431;DHT22;5262;59.958;17.726;2024-01-15T13:23:43;-5.70;99.90
10431;DHT22;5262;59.958;17.726;2024-01-15T13:26:09;-5.80;99.90
10431;DHT22;5262;59.958;17.726;2024-01-15T13:28:34;-5.80;99.90
10431;DHT22;5262;59.958;17.726;2024-01-15T13:31:00;-5.80;99.90
10431;DHT22;5262;59.958;17.726;2024-01-15T13:33:26;-5.70;99.90
10431;DHT22;5262;59.958;17.726;2024-01-15T13:35:52;-5.80;99.90
10431;DHT22;5262;59.958;17.726;2024-01-15T13:38:17;-5.80;99.90
10431;DHT22;5262;59.958;17.726;2024-01-15T13:40:43;-5.80;99.90
10431;DHT22;5262;59.958;17.726;2024-01-15T13:43:12;-5.80;99.90
10431;DHT22;5262;59.958;17.726;2024-01-15T13:45:41;-5.80;99.90
10431;DHT22;5262;59.958;17.726;2024-01-15T13:48:06;-5.70;99.90
10431;DHT22;5262;59.958;17.726;2024-01-15T13:50:34;-5.80;99.90
10431;DHT22;5262;59.958;17.726;2024-01-15T13:53:00;-5.80;99.90
10431;DHT22;5262;59.958;17.726;2024-01-15T13:55:26;-5.90;99.90
10431;DHT22;5262;59.958;17.726;2024-01-15T13:57:52;-5.90;99.90
10431;DHT22;5262;59.958;17.726;2024-01-15T14:00:17;-5.80;99.90
10431;DHT22;5262;59.958;17.726;2024-01-15T14:02:45;-5.80;99.90
10431;DHT22;5262;59.958;17.726;2024-01-15T14:05:12;-5.80;99.90
10431;DHT22;5262;59.958;17.726;2024-01-15T14:07:41;-5.90;99.90
10431;DHT22;5262;59.958;17.726;2024-01-15T14:10:11;-6.00;99.90
10431;DHT22;5262;59.958;17.726;2024-01-15T14:12:36;-6.00;99.90
10431;DHT22;5262;59.958;17.726;2024-01-15T14:15:03;-6.00;99.90
10431;DHT22;5262;59.958;17.726;2024-01-15T14:17:29;-6.00;99.90
10431;DHT22;5262;59.958;17.726;2024-01-15T14:19:54;-6.10;99.90
10431;DHT22;5262;59.958;17.726;2024-01-15T14:22:20;-6.20;99.90
10431;DHT22;5262;59.958;17.726;2024-01-15T14:24:46;-6.40;99.90
10431;DHT22;5262;59.958;17.726;2024-01-15T14:27:11;-6.50;99.90
10431;DHT22;5262;59.958;17.726;2024-01-15T14:29:37;-6.50;99.90
10431;DHT22;5262;59.958;17.726;2024-01-15T14:32:03;-6.60;99.90
10431;DHT22;5262;59.958;17.726;2024-01-15T14:34:29;-6.70;99.90
10431;DHT22;5262;59.958;17.726;2024-01-15T14:36:55;-6.70;99.90
10431;DHT22;5262;59.958;17.726;2024-01-15T14:39:24;-6.80;99.90
10431;DHT22;5262;59.958;17.726;2024-01-15T14:41:51;-6.80;99.90
10431;DHT22;5262;59.958;17.726;2024-01-15T14:44:17;-6.80;99.90
10431;DHT22;5262;59.958;17.726;2024-01-15T14:46:42;-6.80;99.90
10431;DHT22;5262;59.958;17.726;2024-01-15T14:49:08;-6.80;99.90
10431;DHT22;5262;59.958;17.726;2024-01-15T14:51:34;-6.80;99.90
10431;DHT22;5262;59.958;17.726;2024-01-15T14:53:59;-6.80;99.90
10431;DHT22;5262;59.958;17.726;2024-01-15T14:56:25;-6.90;99.90
10431;DHT22;5262;59.958;17.726;2024-01-15T14:58:51;-7.00;99.90
10431;DHT22;5262;59.958;17.726;2024-01-15T15:01:19;-7.00;99.90
10431;DHT22;5262;59.958;17.726;2024-01-15T15:03:45;-7.10;99.90
10431;DHT22;5262;59.958;17.726;2024-01-15T15:06:11;-7.20;99.90
10431;DHT22;5262;59.958;17.726;2024-01-15T15:08:37;-7.30;99.90
10431;DHT22;5262;59.958;17.726;2024-01-15T15:11:04;-7.30;99.90
10431;DHT22;5262;59.958;17.726;2024-01-15T15:13:29;-7.30;99.90
10431;DHT22;5262;59.958;17.726;2024-01-15T15:15:55;-7.30;99.90
10431;DHT22;5262;59.958;17.726;2024-01-15T15:18:21;-7.30;99.90
10431;DHT22;5262;59.958;17.726;2024-01-15T15:20:48;-7.40;99.90
10431;DHT22;5262;59.958;17.726;2024-01-15T15:23:14;-7.40;99.90
10431;DHT22;5262;59.958;17.726;2024-01-15T15:25:40;-7.40;99.90
10431;DHT22;5262;59.958;17.726;2024-01-15T15:28:08;-7.40;99.90
10431;DHT22;5262;59.958;17.726;2024-01-15T15:30:35;-7.60;99.90
10431;DHT22;5262;59.958;17.726;2024-01-15T15:33:00;-7.70;99.90
10431;DHT22;5262;59.958;17.726;2024-01-15T15:35:26;-7.80;99.90
10431;DHT22;5262;59.958;17.726;2024-01-15T15:37:52;-7.90;99.90
10431;DHT22;5262;59.958;17.726;2024-01-15T15:40:17;-7.90;99.90
10431;DHT22;5262;59.958;17.726;2024-01-15T15:42:43;-7.90;99.90